Buoy 46612

sailwx.info

Track history (hours):
 
Tides and Currents Weather Stations Pressure Air Temp Water Temp Dewpoint Dewpoint Depression Visibility Wind Speed Wind Dir Waves Ship Positions

Drifting buoy 46612

Last reported at 2014-Nov-23 18:00 UTC. Time now 2014-Nov-23 21:08 UTC.
Position N 29°15' W 138°58'.

Water temperature 22.3 ° C

Date/timePositionNaut miles runAvg speedWind from/ knotsBaromVisibWave heightAir tempDewpointWater temp
2014-Nov-23 18:00N 29°15' W 138°58'0 0.0 22.3
2014-Nov-23 17:00N 29°15' W 138°58'1 0.6 22.3
2014-Nov-23 16:00N 29°14' W 138°58'1 0.5 22.3
2014-Nov-23 15:00N 29°14' W 138°58'0 0.0 22.2
2014-Nov-23 14:00N 29°14' W 138°58'0 0.0 22.2
2014-Nov-23 13:00N 29°14' W 138°58'1 0.6 22.2
2014-Nov-23 12:00N 29°14' W 138°58'2 0.4 22.2
2014-Nov-23 08:00N 29°13' W 138°59'0 0.0 22.2
2014-Nov-23 07:00N 29°13' W 138°59'1 0.6 22.2
2014-Nov-23 06:00N 29°12' W 138°59'1 0.8 22.2
2014-Nov-23 05:00N 29°11' W 138°59'0 0.0 22.2
2014-Nov-23 04:00N 29°11' W 138°59'1 0.5 22.3
2014-Nov-23 03:00N 29°11' W 138°59'1 0.5 22.3
2014-Nov-23 02:00N 29°11' W 138°59'1 0.3 22.3
2014-Nov-23 00:00N 29°11' W 138°59'0 0.5 22.3
2014-Nov-22 23:00N 29°11' W 138°59'0 0.1 22.3
2014-Nov-22 22:00N 29°11' W 138°59'1 0.4 22.3
2014-Nov-22 20:00N 29°10' W 139°00'1 0.3 22.3
2014-Nov-22 18:00N 29°10' W 139°01'0 0.0 22.3
2014-Nov-22 17:00N 29°10' W 139°01'1 0.6 22.2
2014-Nov-22 15:00N 29°09' W 139°01'0 0.0 22.2
2014-Nov-22 14:00N 29°09' W 139°01'1 0.5 22.2
2014-Nov-22 13:00N 29°09' W 139°01'1 0.8 22.2
2014-Nov-22 12:00N 29°10' W 139°02'2 0.5 22.2
2014-Nov-22 07:00N 29°08' W 139°04'1 0.5 22.3
2014-Nov-22 06:00N 29°08' W 139°05'1 1.3 22.3
2014-Nov-22 05:00N 29°07' W 139°05'1 0.5 22.4
2014-Nov-22 04:00N 29°07' W 139°05'0 0.2 22.5
2014-Nov-22 02:00N 29°07' W 139°05'0 0.2 22.6
2014-Nov-22 01:00N 29°07' W 139°05'1 1.4 22.5
2014-Nov-22 00:00N 29°08' W 139°05'1 0.3 22.7
2014-Nov-21 21:00N 29°08' W 139°05'1 0.3 22.7
2014-Nov-21 19:00N 29°08' W 139°06'1 0.2 22.3
2014-Nov-21 16:00N 29°08' W 139°07'0 0.0 22.2
2014-Nov-21 15:00N 29°08' W 139°07'1 0.4 22.2
2014-Nov-21 13:00N 29°07' W 139°07'0 0.0 22.2
2014-Nov-21 12:00N 29°07' W 139°07'0 0.0 22.2
2014-Nov-21 11:00N 29°07' W 139°07'2 0.8 22.2
2014-Nov-21 09:00N 29°06' W 139°08'0 0.3 22.2
2014-Nov-21 08:00N 29°06' W 139°08'1 0.8 22.2
2014-Nov-21 07:00N 29°06' W 139°09'1 1.2 22.3
2014-Nov-21 06:00N 29°05' W 139°09'1 0.6 22.3
2014-Nov-21 05:00N 29°04' W 139°09'1 0.3 22.3
2014-Nov-21 03:00N 29°04' W 139°08'1 0.8 22.3
2014-Nov-21 02:00N 29°04' W 139°09'0 0.0 22.3
2014-Nov-21 01:00N 29°04' W 139°09'1 0.8 22.4
2014-Nov-21 00:00N 29°04' W 139°08'0 0.0 22.5
2014-Nov-20 23:00N 29°04' W 139°08'0 0.1 22.5
2014-Nov-20 21:00N 29°04' W 139°08'0 0.2 22.5
2014-Nov-20 19:00N 29°05' W 139°08'0 0.0 22.2
2014-Nov-20 18:00N 29°05' W 139°08'1 0.3 22.2
2014-Nov-20 16:00N 29°05' W 139°08'0 0.2 22.2
2014-Nov-20 15:00N 29°05' W 139°08'1 0.4 22.2
2014-Nov-20 13:00N 29°06' W 139°08'0 0.0 22.2
2014-Nov-20 11:00N 29°06' W 139°08'1 0.3 22.2
2014-Nov-20 09:00N 29°05' W 139°08'1 0.7 22.2
2014-Nov-20 07:00N 29°04' W 139°09'1 0.6 22.3
2014-Nov-20 06:00N 29°04' W 139°09'1 0.8 22.3
2014-Nov-20 05:00N 29°03' W 139°08'1 0.3 22.3
2014-Nov-20 03:00N 29°03' W 139°08'1 0.8 22.4
2014-Nov-20 02:00N 29°02' W 139°08'1 0.5 22.4
2014-Nov-20 01:00N 29°02' W 139°08'1 0.3 22.6
2014-Nov-19 23:00N 29°02' W 139°07'1 0.3 22.6
2014-Nov-19 21:00N 29°02' W 139°07'0 0.0 22.3
2014-Nov-19 20:00N 29°02' W 139°07'0 0.0 22.3
2014-Nov-19 19:00N 29°02' W 139°07'0 0.0 22.2
2014-Nov-19 18:00N 29°02' W 139°07'1 0.8 22.3
2014-Nov-19 17:00N 29°03' W 139°06'0 0.0 22.3
2014-Nov-19 16:00N 29°03' W 139°06'1 0.5 22.3
2014-Nov-19 15:00N 29°03' W 139°07'0 0.0 22.3
2014-Nov-19 13:00N 29°03' W 139°07'0 0.0 22.3
2014-Nov-19 12:00N 29°03' W 139°07'0 0.3 22.3
2014-Nov-19 11:00N 29°03' W 139°06'0 0.1 22.3
2014-Nov-19 07:00N 29°03' W 139°07'0 0.2 22.3
2014-Nov-19 06:00N 29°03' W 139°07'0 0.0 22.3
2014-Nov-19 05:00N 29°03' W 139°07'1 0.8 22.3
2014-Nov-19 04:00N 29°02' W 139°06'1 0.3 22.3
2014-Nov-19 02:00N 29°02' W 139°05'0 0.0 22.3
2014-Nov-19 01:00N 29°02' W 139°05'1 1.0 22.3
2014-Nov-19 00:00N 29°02' W 139°04'1 1.2 22.4
2014-Nov-18 23:00N 29°01' W 139°04'1 0.3 22.4
2014-Nov-18 21:00N 29°01' W 139°05'2 1.7 22.3
2014-Nov-18 20:00N 29°02' W 139°03'1 0.6 22.3
2014-Nov-18 19:00N 29°02' W 139°03'1 1.0 22.3
2014-Nov-18 18:00N 29°02' W 139°02'0 0.2 22.3
2014-Nov-18 17:00N 29°02' W 139°02'1 0.8 22.3
2014-Nov-18 16:00N 29°02' W 139°03'1 0.8 22.3
2014-Nov-18 15:00N 29°03' W 139°02'1 0.3 22.3
2014-Nov-18 13:00N 29°03' W 139°02'0 0.5 22.3
2014-Nov-18 12:00N 29°03' W 139°02'0 0.0 22.3
2014-Nov-18 11:00N 29°03' W 139°02'0 0.2 22.3
2014-Nov-18 08:00N 29°03' W 139°01'0 0.0 22.3
2014-Nov-18 07:00N 29°03' W 139°01'1 0.5 22.3
2014-Nov-18 06:00N 29°03' W 139°02'1 0.8 22.3
2014-Nov-18 05:00N 29°02' W 139°01'0 0.0 22.3
2014-Nov-18 04:00N 29°02' W 139°01'1 0.5 22.4
2014-Nov-18 03:00N 29°02' W 139°01'0 0.4 22.4
2014-Nov-18 02:00N 29°03' W 139°01'0 0.2 22.3
2014-Nov-18 01:00N 29°03' W 139°01'0 0.3 22.3
2014-Nov-18 00:00N 29°03' W 139°00'3 2.7 22.3
2014-Nov-17 23:00N 29°05' W 138°58'1 0.2 22.3
2014-Nov-17 19:00N 29°05' W 138°59'0 0.0 22.3
2014-Nov-17 18:00N 29°05' W 138°59'2 1.8 22.3
2014-Nov-17 17:00N 29°07' W 138°59'0 0.3 22.3
2014-Nov-17 16:00N 29°07' W 138°59'0 0.5 22.3
2014-Nov-17 15:00N 29°07' W 138°58'1 0.6 22.3
2014-Nov-17 14:00N 29°08' W 138°58'1 1.2 22.3
2014-Nov-17 13:00N 29°08' W 138°59'1 0.5 22.3
2014-Nov-17 12:00N 29°08' W 138°59'1 0.2 22.3
2014-Nov-17 06:00N 29°08' W 139°00'0 0.0 22.3
2014-Nov-17 05:00N 29°08' W 139°00'0 0.0 22.3
2014-Nov-17 03:00N 29°08' W 139°00'0 0.0 22.4
2014-Nov-17 02:00N 29°08' W 139°00'1 0.4 22.4
2014-Nov-17 00:00N 29°08' W 138°59'1 0.9 22.4
2014-Nov-16 23:00N 29°07' W 139°00'1 0.8 22.4
2014-Nov-16 22:00N 29°07' W 139°01'0 0.3 22.4
2014-Nov-16 21:00N 29°07' W 139°01'0 0.3 22.5
2014-Nov-16 20:00N 29°07' W 139°01'2 0.3 22.5
2014-Nov-16 14:00N 29°06' W 139°02'0 0.2 22.5
2014-Nov-16 13:00N 29°06' W 139°02'0 0.3 22.5
2014-Nov-16 12:00N 29°05' W 139°02'1 0.9 22.5
2014-Nov-16 11:00N 29°04' W 139°02'2 0.4 22.5
2014-Nov-16 07:00N 29°04' W 139°01'1 0.5 22.5
2014-Nov-16 06:00N 29°04' W 139°01'0 0.0 22.5
2014-Nov-16 05:00N 29°04' W 139°01'0 0.0 22.6
2014-Nov-16 04:00N 29°04' W 139°01'1 1.2 22.6
2014-Nov-16 03:00N 29°04' W 139°02'1 0.5 22.6
2014-Nov-16 02:00N 29°04' W 139°02'3 0.7 22.6
2014-Nov-15 22:00N 29°04' W 139°05'1 0.3 22.6
2014-Nov-15 20:00N 29°05' W 139°05'2 0.8 22.5
2014-Nov-15 18:00N 29°04' W 139°07'0 0.0 22.5
2014-Nov-15 17:00N 29°04' W 139°07'1 0.6 22.6
2014-Nov-15 16:00N 29°04' W 139°07'0 0.3 22.6
2014-Nov-15 15:00N 29°04' W 139°07'1 0.8 22.6
2014-Nov-15 14:00N 29°03' W 139°07'0 0.0 22.6
2014-Nov-15 12:00N 29°03' W 139°07'2 0.4 22.6
2014-Nov-15 07:00N 29°01' W 139°08'1 1.0 22.6
2014-Nov-15 06:00N 29°01' W 139°07'0 0.0 22.6
2014-Nov-15 05:00N 29°01' W 139°07'1 0.5 22.6
2014-Nov-15 04:00N 29°01' W 139°07'0 0.0 22.6
2014-Nov-15 03:00N 29°01' W 139°07'1 0.5 22.7
2014-Nov-15 02:00N 29°01' W 139°07'1 0.8 22.7
2014-Nov-15 01:00N 29°01' W 139°07'1 0.5 22.7
2014-Nov-15 00:00N 29°01' W 139°07'1 0.8 22.7
2014-Nov-14 23:00N 29°00' W 139°07'1 0.5 22.7
2014-Nov-14 22:00N 29°00' W 139°07'1 0.3 22.7
2014-Nov-14 20:00N 29°01' W 139°07'1 0.5 22.7
2014-Nov-14 19:00N 29°01' W 139°06'1 0.6 22.6
2014-Nov-14 18:00N 29°00' W 139°06'0 0.0 22.6
2014-Nov-14 16:00N 29°00' W 139°06'1 0.5 22.5
2014-Nov-14 14:00N 29°00' W 139°05'0 0.3 22.5
2014-Nov-14 13:00N 29°00' W 139°05'1 0.9 22.5
2014-Nov-14 12:00N 29°00' W 139°04'2 0.3 22.5
2014-Nov-14 07:00N 29°01' W 139°02'0 0.4 22.6
2014-Nov-14 06:00N 29°01' W 139°02'1 0.8 22.6
2014-Nov-14 05:00N 29°01' W 139°01'1 0.6 22.5
2014-Nov-14 04:00N 29°01' W 139°01'1 0.5 22.5
2014-Nov-14 03:00N 29°01' W 139°00'1 0.6 22.5
2014-Nov-14 02:00N 29°02' W 139°00'1 0.3 22.6
2014-Nov-14 00:00N 29°02' W 138°59'0 0.2 22.6
2014-Nov-13 23:00N 29°01' W 138°59'0 0.3 22.6
2014-Nov-13 22:00N 29°02' W 138°59'2 0.8 22.5
2014-Nov-13 20:00N 29°02' W 138°58'1 0.8 22.5
2014-Nov-13 19:00N 29°02' W 138°57'1 0.5 22.5
2014-Nov-13 18:00N 29°02' W 138°58'   22.5
Track history (hours):
 
Tides and Currents Weather Stations Pressure Air Temp Water Temp Dewpoint Dewpoint Depression Visibility Wind Speed Wind Dir Waves Ship Positions

Drifting buoy 46612

Last reported at 2014-Nov-23 18:00 UTC. Time now 2014-Nov-23 21:08 UTC.
Position N 29°15' W 138°58'.

Water temperature 22.3 ° C

Date/timePositionNaut miles runAvg speedWind from/ knotsBaromVisibWave heightAir tempDewpointWater temp
2014-Nov-23 18:00N 29°15' W 138°58'0 0.0 22.3
2014-Nov-23 17:00N 29°15' W 138°58'1 0.6 22.3
2014-Nov-23 16:00N 29°14' W 138°58'1 0.5 22.3
2014-Nov-23 15:00N 29°14' W 138°58'0 0.0 22.2
2014-Nov-23 14:00N 29°14' W 138°58'0 0.0 22.2
2014-Nov-23 13:00N 29°14' W 138°58'1 0.6 22.2
2014-Nov-23 12:00N 29°14' W 138°58'2 0.4 22.2
2014-Nov-23 08:00N 29°13' W 138°59'0 0.0 22.2
2014-Nov-23 07:00N 29°13' W 138°59'1 0.6 22.2
2014-Nov-23 06:00N 29°12' W 138°59'1 0.8 22.2
2014-Nov-23 05:00N 29°11' W 138°59'0 0.0 22.2
2014-Nov-23 04:00N 29°11' W 138°59'1 0.5 22.3
2014-Nov-23 03:00N 29°11' W 138°59'1 0.5 22.3
2014-Nov-23 02:00N 29°11' W 138°59'1 0.3 22.3
2014-Nov-23 00:00N 29°11' W 138°59'0 0.5 22.3
2014-Nov-22 23:00N 29°11' W 138°59'0 0.1 22.3
2014-Nov-22 22:00N 29°11' W 138°59'1 0.4 22.3
2014-Nov-22 20:00N 29°10' W 139°00'1 0.3 22.3
2014-Nov-22 18:00N 29°10' W 139°01'0 0.0 22.3
2014-Nov-22 17:00N 29°10' W 139°01'1 0.6 22.2
2014-Nov-22 15:00N 29°09' W 139°01'0 0.0 22.2
2014-Nov-22 14:00N 29°09' W 139°01'1 0.5 22.2
2014-Nov-22 13:00N 29°09' W 139°01'1 0.8 22.2
2014-Nov-22 12:00N 29°10' W 139°02'2 0.5 22.2
2014-Nov-22 07:00N 29°08' W 139°04'1 0.5 22.3
2014-Nov-22 06:00N 29°08' W 139°05'1 1.3 22.3
2014-Nov-22 05:00N 29°07' W 139°05'1 0.5 22.4
2014-Nov-22 04:00N 29°07' W 139°05'0 0.2 22.5
2014-Nov-22 02:00N 29°07' W 139°05'0 0.2 22.6
2014-Nov-22 01:00N 29°07' W 139°05'1 1.4 22.5
2014-Nov-22 00:00N 29°08' W 139°05'1 0.3 22.7
2014-Nov-21 21:00N 29°08' W 139°05'1 0.3 22.7
2014-Nov-21 19:00N 29°08' W 139°06'1 0.2 22.3
2014-Nov-21 16:00N 29°08' W 139°07'0 0.0 22.2
2014-Nov-21 15:00N 29°08' W 139°07'1 0.4 22.2
2014-Nov-21 13:00N 29°07' W 139°07'0 0.0 22.2
2014-Nov-21 12:00N 29°07' W 139°07'0 0.0 22.2
2014-Nov-21 11:00N 29°07' W 139°07'2 0.8 22.2
2014-Nov-21 09:00N 29°06' W 139°08'0 0.3 22.2
2014-Nov-21 08:00N 29°06' W 139°08'1 0.8 22.2
2014-Nov-21 07:00N 29°06' W 139°09'1 1.2 22.3
2014-Nov-21 06:00N 29°05' W 139°09'1 0.6 22.3
2014-Nov-21 05:00N 29°04' W 139°09'1 0.3 22.3
2014-Nov-21 03:00N 29°04' W 139°08'1 0.8 22.3
2014-Nov-21 02:00N 29°04' W 139°09'0 0.0 22.3
2014-Nov-21 01:00N 29°04' W 139°09'1 0.8 22.4
2014-Nov-21 00:00N 29°04' W 139°08'0 0.0 22.5
2014-Nov-20 23:00N 29°04' W 139°08'0 0.1 22.5
2014-Nov-20 21:00N 29°04' W 139°08'0 0.2 22.5
2014-Nov-20 19:00N 29°05' W 139°08'0 0.0 22.2
2014-Nov-20 18:00N 29°05' W 139°08'1 0.3 22.2
2014-Nov-20 16:00N 29°05' W 139°08'0 0.2 22.2
2014-Nov-20 15:00N 29°05' W 139°08'1 0.4 22.2
2014-Nov-20 13:00N 29°06' W 139°08'0 0.0 22.2
2014-Nov-20 11:00N 29°06' W 139°08'1 0.3 22.2
2014-Nov-20 09:00N 29°05' W 139°08'1 0.7 22.2
2014-Nov-20 07:00N 29°04' W 139°09'1 0.6 22.3
2014-Nov-20 06:00N 29°04' W 139°09'1 0.8 22.3
2014-Nov-20 05:00N 29°03' W 139°08'1 0.3 22.3
2014-Nov-20 03:00N 29°03' W 139°08'1 0.8 22.4
2014-Nov-20 02:00N 29°02' W 139°08'1 0.5 22.4
2014-Nov-20 01:00N 29°02' W 139°08'1 0.3 22.6
2014-Nov-19 23:00N 29°02' W 139°07'1 0.3 22.6
2014-Nov-19 21:00N 29°02' W 139°07'0 0.0 22.3
2014-Nov-19 20:00N 29°02' W 139°07'0 0.0 22.3
2014-Nov-19 19:00N 29°02' W 139°07'0 0.0 22.2
2014-Nov-19 18:00N 29°02' W 139°07'1 0.8 22.3
2014-Nov-19 17:00N 29°03' W 139°06'0 0.0 22.3
2014-Nov-19 16:00N 29°03' W 139°06'1 0.5 22.3
2014-Nov-19 15:00N 29°03' W 139°07'0 0.0 22.3
2014-Nov-19 13:00N 29°03' W 139°07'0 0.0 22.3
2014-Nov-19 12:00N 29°03' W 139°07'0 0.3 22.3
2014-Nov-19 11:00N 29°03' W 139°06'0 0.1 22.3
2014-Nov-19 07:00N 29°03' W 139°07'0 0.2 22.3
2014-Nov-19 06:00N 29°03' W 139°07'0 0.0 22.3
2014-Nov-19 05:00N 29°03' W 139°07'1 0.8 22.3
2014-Nov-19 04:00N 29°02' W 139°06'1 0.3 22.3
2014-Nov-19 02:00N 29°02' W 139°05'0 0.0 22.3
2014-Nov-19 01:00N 29°02' W 139°05'1 1.0 22.3
2014-Nov-19 00:00N 29°02' W 139°04'1 1.2 22.4
2014-Nov-18 23:00N 29°01' W 139°04'1 0.3 22.4
2014-Nov-18 21:00N 29°01' W 139°05'2 1.7 22.3
2014-Nov-18 20:00N 29°02' W 139°03'1 0.6 22.3
2014-Nov-18 19:00N 29°02' W 139°03'1 1.0 22.3
2014-Nov-18 18:00N 29°02' W 139°02'0 0.2 22.3
2014-Nov-18 17:00N 29°02' W 139°02'1 0.8 22.3
2014-Nov-18 16:00N 29°02' W 139°03'1 0.8 22.3
2014-Nov-18 15:00N 29°03' W 139°02'1 0.3 22.3
2014-Nov-18 13:00N 29°03' W 139°02'0 0.5 22.3
2014-Nov-18 12:00N 29°03' W 139°02'0 0.0 22.3
2014-Nov-18 11:00N 29°03' W 139°02'0 0.2 22.3
2014-Nov-18 08:00N 29°03' W 139°01'0 0.0 22.3
2014-Nov-18 07:00N 29°03' W 139°01'1 0.5 22.3
2014-Nov-18 06:00N 29°03' W 139°02'1 0.8 22.3
2014-Nov-18 05:00N 29°02' W 139°01'0 0.0 22.3
2014-Nov-18 04:00N 29°02' W 139°01'1 0.5 22.4
2014-Nov-18 03:00N 29°02' W 139°01'0 0.4 22.4
2014-Nov-18 02:00N 29°03' W 139°01'0 0.2 22.3
2014-Nov-18 01:00N 29°03' W 139°01'0 0.3 22.3
2014-Nov-18 00:00N 29°03' W 139°00'3 2.7 22.3
2014-Nov-17 23:00N 29°05' W 138°58'1 0.2 22.3
2014-Nov-17 19:00N 29°05' W 138°59'0 0.0 22.3
2014-Nov-17 18:00N 29°05' W 138°59'2 1.8 22.3
2014-Nov-17 17:00N 29°07' W 138°59'0 0.3 22.3
2014-Nov-17 16:00N 29°07' W 138°59'0 0.5 22.3
2014-Nov-17 15:00N 29°07' W 138°58'1 0.6 22.3
2014-Nov-17 14:00N 29°08' W 138°58'1 1.2 22.3
2014-Nov-17 13:00N 29°08' W 138°59'1 0.5 22.3
2014-Nov-17 12:00N 29°08' W 138°59'1 0.2 22.3
2014-Nov-17 06:00N 29°08' W 139°00'0 0.0 22.3
2014-Nov-17 05:00N 29°08' W 139°00'0 0.0 22.3
2014-Nov-17 03:00N 29°08' W 139°00'0 0.0 22.4
2014-Nov-17 02:00N 29°08' W 139°00'1 0.4 22.4
2014-Nov-17 00:00N 29°08' W 138°59'1 0.9 22.4
2014-Nov-16 23:00N 29°07' W 139°00'1 0.8 22.4
2014-Nov-16 22:00N 29°07' W 139°01'0 0.3 22.4
2014-Nov-16 21:00N 29°07' W 139°01'0 0.3 22.5
2014-Nov-16 20:00N 29°07' W 139°01'2 0.3 22.5
2014-Nov-16 14:00N 29°06' W 139°02'0 0.2 22.5
2014-Nov-16 13:00N 29°06' W 139°02'0 0.3 22.5
2014-Nov-16 12:00N 29°05' W 139°02'1 0.9 22.5
2014-Nov-16 11:00N 29°04' W 139°02'2 0.4 22.5
2014-Nov-16 07:00N 29°04' W 139°01'1 0.5 22.5
2014-Nov-16 06:00N 29°04' W 139°01'0 0.0 22.5
2014-Nov-16 05:00N 29°04' W 139°01'0 0.0 22.6
2014-Nov-16 04:00N 29°04' W 139°01'1 1.2 22.6
2014-Nov-16 03:00N 29°04' W 139°02'1 0.5 22.6
2014-Nov-16 02:00N 29°04' W 139°02'3 0.7 22.6
2014-Nov-15 22:00N 29°04' W 139°05'1 0.3 22.6
2014-Nov-15 20:00N 29°05' W 139°05'2 0.8 22.5
2014-Nov-15 18:00N 29°04' W 139°07'0 0.0 22.5
2014-Nov-15 17:00N 29°04' W 139°07'1 0.6 22.6
2014-Nov-15 16:00N 29°04' W 139°07'0 0.3 22.6
2014-Nov-15 15:00N 29°04' W 139°07'1 0.8 22.6
2014-Nov-15 14:00N 29°03' W 139°07'0 0.0 22.6
2014-Nov-15 12:00N 29°03' W 139°07'2 0.4 22.6
2014-Nov-15 07:00N 29°01' W 139°08'1 1.0 22.6
2014-Nov-15 06:00N 29°01' W 139°07'0 0.0 22.6
2014-Nov-15 05:00N 29°01' W 139°07'1 0.5 22.6
2014-Nov-15 04:00N 29°01' W 139°07'0 0.0 22.6
2014-Nov-15 03:00N 29°01' W 139°07'1 0.5 22.7
2014-Nov-15 02:00N 29°01' W 139°07'1 0.8 22.7
2014-Nov-15 01:00N 29°01' W 139°07'1 0.5 22.7
2014-Nov-15 00:00N 29°01' W 139°07'1 0.8 22.7
2014-Nov-14 23:00N 29°00' W 139°07'1 0.5 22.7
2014-Nov-14 22:00N 29°00' W 139°07'1 0.3 22.7
2014-Nov-14 20:00N 29°01' W 139°07'1 0.5 22.7
2014-Nov-14 19:00N 29°01' W 139°06'1 0.6 22.6
2014-Nov-14 18:00N 29°00' W 139°06'0 0.0 22.6
2014-Nov-14 16:00N 29°00' W 139°06'1 0.5 22.5
2014-Nov-14 14:00N 29°00' W 139°05'0 0.3 22.5
2014-Nov-14 13:00N 29°00' W 139°05'1 0.9 22.5
2014-Nov-14 12:00N 29°00' W 139°04'2 0.3 22.5
2014-Nov-14 07:00N 29°01' W 139°02'0 0.4 22.6
2014-Nov-14 06:00N 29°01' W 139°02'1 0.8 22.6
2014-Nov-14 05:00N 29°01' W 139°01'1 0.6 22.5
2014-Nov-14 04:00N 29°01' W 139°01'1 0.5 22.5
2014-Nov-14 03:00N 29°01' W 139°00'1 0.6 22.5
2014-Nov-14 02:00N 29°02' W 139°00'1 0.3 22.6
2014-Nov-14 00:00N 29°02' W 138°59'0 0.2 22.6
2014-Nov-13 23:00N 29°01' W 138°59'0 0.3 22.6
2014-Nov-13 22:00N 29°02' W 138°59'2 0.8 22.5
2014-Nov-13 20:00N 29°02' W 138°58'1 0.8 22.5
2014-Nov-13 19:00N 29°02' W 138°57'1 0.5 22.5
2014-Nov-13 18:00N 29°02' W 138°58'   22.5

Dump ship's entire track history